Latest Weather Observations for Orange Airport

IDN60801

Issued at 8:32 am EST Friday 28 April 2017 (issued every 30 minutes, with the page automatically refreshed every 10 minutes)

About weather observations | Map of weather stations | Latest weather observations for NSW | Other Formats
Station Details ID: 063303 Name: ORANGE AIRPORT AWS Lat: -33.38 Lon: 149.13 Height: 944.65 m
Data from the previous 72 hours. | See also: Recent months at Orange Airport
Date/Time
EST
Temp
°C
App
Temp
°C
Dew
Point
°C
Rel
Hum
%
Delta-T
°C
Wind Press
QNH
hPa
Press
MSL
hPa
Rain since
9am
mm
Dir  Spd
km/h
Gust
km/h
Spd
kts
Gust
kts
28/08:30am 7.2 3.7 3.4 77 1.7 SSE 11 13 6 7 1023.1 1021.4 0.0
28/08:00am 5.5 1.9 2.8 83 1.2 S 11 13 6 7 1022.8 1021.1 0.0
28/07:30am 2.8 -1.0 1.8 93 0.4 S 11 13 6 7 1022.5 1020.9 0.0
28/07:00am 1.3 -2.3 0.3 93 0.4 S 9 9 5 5 1022.2 1020.5 0.0
28/06:30am 1.4 -2.2 0.4 93 0.4 SSW 9 11 5 6 1022.1 1020.4 0.0
28/06:00am 1.4 -2.2 0.8 96 0.2 SSW 9 11 5 6 1022.0 1020.3 0.0
28/05:30am 0.2 -3.6 -0.6 94 0.3 SSW 9 11 5 6 1021.6 1019.9 0.0
28/05:00am 0.1 -3.7 -1.0 92 0.4 SW 9 9 5 5 1021.3 1019.6 0.0
28/04:30am 1.5 -2.1 0.3 92 0.5 SSW 9 11 5 6 1021.2 1019.5 0.0
28/04:00am 2.0 -1.5 1.0 93 0.4 SSW 9 11 5 6 1021.0 1019.3 0.0
28/03:30am 1.5 -2.5 0.5 93 0.4 SW 11 13 6 7 1020.8 1019.1 0.0
28/03:00am 1.7 -2.3 0.5 92 0.5 SW 11 13 6 7 1020.7 1019.0 0.0
28/02:30am 2.1 -1.9 0.8 91 0.5 SW 11 13 6 7 1020.7 1019.0 0.0
28/02:00am 2.3 -2.4 1.0 91 0.5 SW 15 17 8 9 1020.8 1019.1 0.0
28/01:30am 2.9 -1.8 1.1 88 0.7 SW 15 17 8 9 1020.9 1019.2 0.0
28/01:00am 3.4 -1.6 1.4 87 0.8 SW 17 20 9 11 1021.1 1019.4 0.0
28/12:30am 3.5 -1.5 1.4 86 0.9 SW 17 22 9 12 1021.0 1019.3 0.0
28/12:00am 3.6 -1.4 1.3 85 0.9 SW 17 22 9 12 1021.1 1019.4 0.0
 
Date/Time
EST
Temp
°C
App
Temp
°C
Dew
Point
°C
Rel
Hum
%
Delta-T
°C
Wind Press
QNH
hPa
Press
MSL
hPa
Rain since
9am
mm
Dir  Spd
km/h
Gust
km/h
Spd
kts
Gust
kts
27/11:30pm 3.6 -1.8 1.2 84 1.0 SW 19 22 10 12 1021.0 1019.3 0.0
27/11:00pm 3.7 -1.7 1.1 83 1.1 SW 19 22 10 12 1021.0 1019.3 0.0
27/10:30pm 3.7 -1.3 1.1 83 1.1 SW 17 20 9 11 1020.9 1019.2 0.0
27/10:00pm 3.8 -1.6 1.0 82 1.1 SSW 19 20 10 11 1020.7 1019.0 0.0
27/09:30pm 4.0 -1.4 1.5 84 1.0 SW 19 24 10 13 1020.6 1018.9 0.0
27/09:00pm 3.6 -1.4 1.3 85 0.9 SW 17 20 9 11 1020.5 1018.7 0.0
27/08:30pm 3.8 -1.6 1.5 85 1.0 SW 19 22 10 12 1020.5 1018.7 0.0
27/08:00pm 3.7 -1.7 1.4 85 0.9 SW 19 24 10 13 1020.6 1018.9 0.0
27/07:30pm 3.8 -1.5 1.7 86 0.9 SW 19 26 10 14 1020.4 1018.6 0.0
27/07:00pm 4.4 -1.5 1.8 83 1.1 SW 22 30 12 16 1020.1 1018.4 0.0
27/06:30pm 4.5 -1.0 2.0 84 1.1 SW 20 26 11 14 1019.9 1018.2 0.0
27/06:00pm 4.8 -0.1 2.3 84 1.1 SW 17 28 9 15 1019.4 1017.6 0.0
27/05:30pm 4.8 -0.1 2.0 82 1.2 SW 17 22 9 12 1018.7 1017.0 0.0
27/05:00pm 5.8 0.3 1.9 76 1.7 SW 20 28 11 15 1018.4 1016.6 0.0
27/04:30pm 6.4 0.2 2.3 75 1.8 SSW 24 35 13 19 1018.1 1016.3 0.0
27/04:00pm 6.7 0.2 2.4 74 1.9 SW 26 35 14 19 1017.8 1016.1 0.0
27/03:30pm 7.2 1.5 3.1 75 1.8 SW 22 30 12 16 1017.6 1015.8 0.0
27/03:00pm 7.2 1.9 2.9 74 1.9 SW 20 32 11 17 1017.3 1015.5 0.0
27/02:30pm 7.5 2.3 3.4 75 1.8 SW 20 28 11 15 1017.3 1015.5 0.0
27/02:00pm 7.3 2.2 3.2 75 1.8 SSW 19 28 10 15 1017.0 1015.2 0.0
27/01:30pm 7.1 2.0 2.8 74 1.9 SSW 19 30 10 16 1016.7 1014.9 0.0
27/01:00pm 6.2 0.7 1.7 73 1.9 SW 20 26 11 14 1017.1 1015.3 0.0
27/12:54pm 6.2 1.4 2.5 77 1.6 SSW 17 26 9 14 1017.2 1015.4 0.0
27/12:30pm 5.9 0.5 2.2 77 1.6 SSW 20 28 11 15 1017.3 1015.5 0.0
27/12:00pm 5.5 0.2 2.0 78 1.5 SSW 19 30 10 16 1017.3 1015.5 0.0
27/11:30am 5.0 -0.3 1.8 80 1.4 SSW 19 26 10 14 1017.4 1015.6 0.0
27/11:00am 4.7 -0.6 1.9 82 1.2 SW 19 28 10 15 1017.6 1015.8 0.0
27/10:30am 4.9 -0.5 2.4 84 1.1 SSW 20 28 11 15 1017.7 1015.9 0.0
27/10:00am 3.8 -1.7 2.0 88 0.8 SW 20 26 11 14 1017.5 1015.7 0.0
27/09:30am 3.4 -1.9 2.1 91 0.5 S 19 24 10 13 1017.3 1015.5 0.0
27/09:00am 3.8 -1.0 2.5 91 0.6 SSW 17 22 9 12 1017.0 1015.2 13.2
27/08:30am 3.0 -1.9 1.8 92 0.5 SW 17 24 9 13 1016.8 1015.1 13.2
27/08:00am 2.8 -2.1 1.8 93 0.4 SSW 17 24 9 13 1016.5 1014.7 13.2
27/07:30am 2.7 -2.2 2.1 96 0.3 SW 17 28 9 15 1016.1 1014.3 13.2
27/07:00am 2.7 -2.5 2.3 97 0.2 SW 19 26 10 14 1015.6 1013.8 13.2
27/06:31am 2.6 -2.8 2.3 98 0.1 SW 20 30 11 16 1015.3 1013.5 13.2
27/06:30am 2.6 -2.8 2.3 98 0.1 SW 20 30 11 16 1015.3 1013.5 13.2
27/06:00am 2.7 -3.4 2.6 99 0.0 SW 24 30 13 16 1014.9 1013.0 13.2
27/05:30am 2.8 -2.9 2.7 99 0.0 SW 22 30 12 16 1014.9 1013.0 13.2
27/05:00am 2.9 -1.9 2.8 99 0.0 SSW 17 26 9 14 1014.5 1012.7 13.2
27/04:30am 3.0 -2.4 2.7 98 0.1 SW 20 30 11 16 1013.8 1011.9 13.2
27/04:18am 3.0 -2.4 2.7 98 0.1 SW 20 28 11 15 1013.7 1011.8 13.2
27/04:00am 3.1 -2.2 2.8 98 0.1 SW 20 26 11 14 1013.6 1011.7 13.2
27/03:30am 3.3 -1.4 2.9 97 0.2 SW 17 22 9 12 1013.6 1011.7 13.2
27/03:00am 3.4 -1.4 2.8 96 0.3 SW 17 22 9 12 1013.8 1011.9 13.2
27/02:53am 3.4 -1.4 2.7 95 0.3 SSW 17 22 9 12 1013.8 1011.9 13.2
27/02:42am 3.3 -2.4 2.6 95 0.3 SW 22 30 12 16 1013.6 1011.7 13.2
27/02:30am 3.4 -2.4 2.5 94 0.4 SW 22 30 12 16 1013.7 1011.8 13.2
27/02:00am 3.8 -0.9 3.1 95 0.3 SSW 17 24 9 13 1014.0 1012.1 13.2
27/01:30am 4.0 -1.2 3.3 95 0.3 SSW 20 30 11 16 1014.0 1012.1 13.2
27/01:00am 4.3 -1.3 3.6 95 0.3 SW 22 30 12 16 1014.2 1012.4 13.2
27/12:30am 4.5 -1.0 3.8 95 0.3 SW 22 33 12 18 1014.3 1012.5 13.2
27/12:00am 4.6 -1.7 3.9 95 0.3 SW 26 35 14 19 1014.1 1012.3 13.2
 
Date/Time
EST
Temp
°C
App
Temp
°C
Dew
Point
°C
Rel
Hum
%
Delta-T
°C
Wind Press
QNH
hPa
Press
MSL
hPa
Rain since
9am
mm
Dir  Spd
km/h
Gust
km/h
Spd
kts
Gust
kts
26/11:30pm 4.7 -2.0 3.8 94 0.4 SW 28 39 15 21 1013.9 1012.0 13.2
26/11:00pm 5.1 -1.1 4.4 95 0.3 SW 26 35 14 19 1013.6 1011.7 13.2
26/10:30pm 5.4 -1.1 4.8 96 0.3 SW 28 39 15 21 1013.2 1011.4 13.2
26/10:00pm 5.9 -1.3 5.2 95 0.3 SW 32 46 17 25 1013.4 1011.6 13.0
26/09:30pm 6.0 -1.3 5.3 95 0.3 SW 33 52 18 28 1013.2 1011.4 13.0
26/09:29pm 6.0 -1.3 5.4 96 0.3 SW 33 52 18 28 1013.2 1011.4 13.0
26/09:00pm 6.0 -1.1 5.4 96 0.3 SW 32 46 17 25 1013.0 1011.1 12.6
26/08:30pm 6.0 -0.4 5.4 96 0.3 SW 28 43 15 23 1012.8 1010.9 12.6
26/08:00pm 5.9 -0.5 5.3 96 0.3 SW 28 39 15 21 1012.4 1010.5 12.4
26/07:30pm 5.5 -0.2 4.9 96 0.3 WSW 24 32 13 17 1012.0 1010.1 11.8
26/07:00pm 5.4 -0.3 4.8 96 0.3 WSW 24 32 13 17 1011.7 1009.8 11.4
26/06:30pm 5.4 0.0 4.7 95 0.3 WSW 22 32 12 17 1011.1 1009.2 11.2
26/06:00pm 5.3 -0.5 4.3 93 0.5 WSW 24 33 13 18 1010.5 1008.6 11.2
26/05:30pm 5.5 0.5 4.5 93 0.5 WSW 20 30 11 16 1010.1 1008.1 10.8
26/05:00pm 5.3 -1.3 4.1 92 0.5 WSW 28 39 15 21 1009.7 1007.8 10.8
26/04:30pm 5.3 -2.1 3.8 90 0.7 WSW 32 46 17 25 1009.3 1007.3 10.8
26/04:00pm 6.0 -0.1 4.8 92 0.6 WSW 26 39 14 21 1008.8 1006.9 10.4
26/03:37pm 5.6 -0.2 4.6 93 0.5 WSW 24 32 13 17 1009.0 1007.0 10.4
26/03:30pm 5.6 -0.1 4.7 94 0.4 WSW 24 30 13 16 1008.8 1006.9 10.0
26/03:25pm 5.6 0.2 4.6 93 0.5 WSW 22 30 12 16 1008.8 1006.9 9.8
26/03:11pm 5.9 1.4 4.4 90 0.7 WSW 17 26 9 14 1008.6 1006.7 9.6
26/03:00pm 5.7 -0.2 4.0 89 0.8 WSW 24 35 13 19 1008.6 1006.7 9.6
26/02:30pm 5.1 -0.9 3.6 90 0.7 SW 24 35 13 19 1007.9 1005.9 9.6
26/02:15pm 4.8 -2.7 3.5 91 0.6 SW 32 41 17 22 1008.2 1006.2 9.6
26/02:08pm 4.7 -3.0 3.5 92 0.5 WSW 33 46 18 25 1008.7 1006.8 9.2
26/02:00pm 4.8 -3.6 3.6 92 0.5 WSW 37 52 20 28 1009.0 1007.0 9.0
26/01:50pm 5.2 -1.7 4.5 95 0.3 WSW 30 43 16 23 1009.0 1007.0 8.4
26/01:30pm 5.3 -1.6 4.6 95 0.3 SW 30 43 16 23 1009.1 1007.1 6.6
26/01:00pm 5.4 -2.8 4.5 94 0.4 SW 37 56 20 30 1008.4 1006.4 4.6
26/12:55pm 5.5 -3.1 4.9 96 0.3 SW 39 56 21 30 1008.4 1006.4 4.4
26/12:45pm 5.2 -3.5 4.2 93 0.5 SW 39 61 21 33 1008.3 1006.3 3.8
26/12:44pm 5.2 -3.5 4.2 93 0.5 SW 39 61 21 33 1008.3 1006.3 3.6
26/12:41pm 5.2 -2.8 4.0 92 0.5 SW 35 52 19 28 1008.3 1006.3 3.4
26/12:38pm 5.4 -2.2 4.1 91 0.6 SW 33 50 18 27 1008.3 1006.3 3.2
26/12:30pm 6.8 -1.6 5.6 92 0.6 WSW 39 50 21 27 1008.0 1006.0 2.4
26/12:24pm 7.0 -2.2 5.3 89 0.8 WSW 43 63 23 34 1007.9 1005.9 2.0
26/12:18pm 7.6 -1.2 5.4 86 1.0 W 41 63 22 34 1007.9 1005.9 1.6
26/12:03pm 11.7 3.5 6.4 70 2.6 WNW 39 57 21 31 1006.8 1004.8 0.2
26/12:00pm 13.6 6.2 8.4 71 2.7 WNW 37 52 20 28 1006.8 1004.8 0.2
26/11:30am 13.1 5.4 7.3 68 3.0 WNW 37 44 20 24 1007.4 1005.4 0.2
26/11:26am 12.9 5.3 7.4 69 2.8 NW 37 52 20 28 1007.4 1005.4 0.2
26/11:00am 12.6 6.8 8.1 74 2.3 W 28 44 15 24 1008.3 1006.3 0.2
26/10:30am 11.7 6.3 8.2 79 1.8 WNW 26 35 14 19 1008.7 1006.8 0.2
26/10:00am 11.1 6.6 8.7 85 1.3 WNW 22 30 12 16 1009.2 1007.2 0.2
26/09:31am 11.2 6.2 7.9 80 1.7 WNW 24 30 13 16 1009.7 1007.8 0.0
26/09:30am 11.2 6.2 8.1 81 1.6 WNW 24 32 13 17 1009.7 1007.8 0.0
26/09:00am 11.4 6.1 8.3 81 1.6 NW 26 35 14 19 1009.8 1007.9 19.0
26/08:40am 11.5 6.7 8.9 84 1.4 NW 24 32 13 17 1010.1 1008.1 19.0
26/08:38am 11.3 6.3 8.2 81 1.6 NW 24 32 13 17 1010.1 1008.1 19.0
26/08:30am 11.0 5.6 8.2 83 1.4 NW 26 33 14 18 1010.1 1008.1 19.0
26/08:27am 11.0 6.0 8.2 83 1.4 NW 24 33 13 18 1010.1 1008.1 19.0
26/08:00am 11.3 7.3 8.2 81 1.6 WNW 19 24 10 13 1010.2 1008.2 19.0
26/07:30am 11.1 6.7 7.4 78 1.9 WNW 20 26 11 14 1010.2 1008.2 19.0
26/07:00am 9.8 5.5 7.1 83 1.4 W 19 28 10 15 1010.1 1008.1 19.0
26/06:30am 10.4 5.9 7.1 80 1.7 W 20 28 11 15 1010.2 1008.2 19.0
26/06:00am 10.6 6.3 8.0 84 1.3 WNW 20 28 11 15 1010.1 1008.1 19.0
26/05:30am 10.8 4.9 7.5 80 1.7 W 28 37 15 20 1010.1 1008.1 19.0
26/05:00am 10.9 6.8 8.0 82 1.5 WNW 19 28 10 15 1010.1 1008.1 19.0
26/04:30am 10.8 7.2 8.4 85 1.2 WNW 17 26 9 14 1010.2 1008.2 19.0
26/04:00am 10.5 7.3 8.4 87 1.1 W 15 20 8 11 1010.4 1008.5 19.0
26/03:30am 10.1 6.8 8.2 88 1.0 W 15 17 8 9 1010.6 1008.7 19.0
26/03:00am 9.5 6.5 7.9 90 0.8 NW 13 17 7 9 1010.8 1008.9 19.0
26/02:30am 10.0 7.2 8.4 90 0.8 W 13 15 7 8 1011.1 1009.2 19.0
26/02:00am 10.9 7.8 8.8 87 1.1 W 15 20 8 11 1011.4 1009.5 19.0
26/01:30am 11.1 7.6 8.8 86 1.2 W 17 22 9 12 1011.6 1009.7 19.0
26/01:00am 11.3 8.0 9.6 89 0.9 W 17 24 9 13 1011.9 1010.0 19.0
26/12:30am 11.0 8.9 9.6 91 0.7 W 11 15 6 8 1011.9 1010.0 19.0
26/12:00am 11.6 10.0 10.3 92 0.7 WNW 9 13 5 7 1012.1 1010.2 19.0
 
Date/Time
EST
Temp
°C
App
Temp
°C
Dew
Point
°C
Rel
Hum
%
Delta-T
°C
Wind Press
QNH
hPa
Press
MSL
hPa
Rain since
9am
mm
Dir  Spd
km/h
Gust
km/h
Spd
kts
Gust
kts
25/11:30pm 12.1 9.9 10.8 92 0.7 WNW 13 15 7 8 1012.4 1010.5 19.0
25/11:00pm 11.9 9.6 10.6 92 0.7 WNW 13 17 7 9 1012.2 1010.4 19.0
25/10:30pm 12.1 9.1 10.7 91 0.8 WNW 17 20 9 11 1012.6 1010.7 19.0
25/10:00pm 12.0 10.7 11.2 95 0.4 NW 9 11 5 6 1012.6 1010.7 19.0
25/09:30pm 12.0 9.9 11.2 95 0.4 W 13 15 7 8 1012.9 1011.0 19.0
25/09:00pm 11.9 10.2 11.3 96 0.3 W 11 15 6 8 1012.7 1010.8 19.0
25/08:53pm 11.9 9.8 11.3 96 0.3 W 13 17 7 9 1013.0 1011.1 19.0
25/08:40pm 11.9 9.4 11.1 95 0.4 WSW 15 20 8 11 1013.0 1011.1 18.4
25/08:30pm 12.0 9.5 11.1 94 0.5 W 15 17 8 9 1013.1 1011.3 17.6
25/08:07pm 12.2 8.8 11.1 93 0.6 W 20 28 11 15 1013.0 1011.1 17.2
25/08:00pm 12.5 8.7 11.2 92 0.7 W 22 32 12 17 1013.0 1011.1 16.8
25/07:30pm 13.0 10.4 12.1 94 0.5 W 17 20 9 11 1012.7 1010.8 16.4
25/07:00pm 12.9 10.4 12.3 96 0.3 NW 17 24 9 13 1012.7 1010.8 16.4
25/06:50pm 13.0 10.6 12.5 97 0.3 NW 17 24 9 13 1012.7 1010.8 16.4
25/06:38pm 13.2 10.2 12.7 97 0.3 WNW 20 28 11 15 1012.6 1010.7 16.0
25/06:30pm 13.1 11.1 12.6 97 0.3 NW 15 20 8 11 1012.6 1010.7 15.2
25/06:11pm 13.1 10.7 12.6 97 0.3 NW 17 24 9 13 1012.5 1010.6 15.0
25/06:00pm 13.0 10.2 12.5 97 0.3 NW 19 24 10 13 1012.5 1010.6 14.8
25/05:41pm 13.0 10.6 12.5 97 0.3 NW 17 26 9 14 1012.5 1010.6 14.0
25/05:30pm 13.0 10.9 12.5 97 0.3 NNW 15 20 8 11 1012.4 1010.5 13.8
25/05:15pm 13.0 11.8 12.7 98 0.2 NW 11 13 6 7 1012.2 1010.4 13.8
25/05:00pm 12.9 10.9 12.6 98 0.2 WNW 15 20 8 11 1012.5 1010.6 13.4
25/04:42pm 12.9 10.4 12.4 97 0.3 NW 17 24 9 13 1012.2 1010.4 12.6
25/04:30pm 12.9 10.4 12.4 97 0.3 NNW 17 26 9 14 1012.2 1010.4 12.6
25/04:01pm 12.9 10.4 12.4 97 0.3 NNW 17 22 9 12 1012.4 1010.5 11.8
25/04:00pm 12.9 10.4 12.4 97 0.3 NNW 17 22 9 12 1012.4 1010.5 11.8
25/03:30pm 12.9 11.6 12.4 97 0.3 NNW 11 17 6 9 1012.5 1010.6 10.2
25/03:00pm 12.8 9.9 12.2 96 0.3 NW 19 28 10 15 1012.7 1010.8 9.2
25/02:47pm 12.9 10.0 12.3 96 0.3 NW 19 24 10 13 1012.9 1011.0 8.4
25/02:45pm 12.9 10.0 12.3 96 0.3 NW 19 24 10 13 1012.9 1011.0 8.2
25/02:30pm 12.8 10.3 12.2 96 0.3 NW 17 24 9 13 1013.1 1011.3 7.2
25/02:06pm 13.0 10.6 12.5 97 0.3 NW 17 24 9 13 1013.3 1011.5 6.0
25/02:00pm 12.9 10.4 12.4 97 0.3 NW 17 24 9 13 1013.4 1011.6 5.6
25/01:30pm 12.9 10.4 12.3 96 0.3 NW 17 24 9 13 1013.9 1012.0 4.8
25/01:00pm 12.8 9.3 12.2 96 0.3 NW 22 32 12 17 1014.5 1012.7 3.8
25/12:30pm 13.0 8.7 12.2 95 0.5 NW 26 33 14 18 1015.0 1013.2 2.4
25/12:00pm 13.7 10.5 11.8 88 1.1 NW 20 30 11 16 1015.4 1013.6 0.8
25/11:59am 13.7 10.4 11.6 87 1.2 NW 20 30 11 16 1015.4 1013.6 0.8
25/11:30am 14.2 10.5 11.4 83 1.6 NW 22 30 12 16 1015.7 1013.9 0.6
25/11:00am 14.0 8.8 11.7 86 1.3 NW 30 46 16 25 1016.3 1014.5 0.6
25/10:54am 14.1 9.2 11.4 84 1.5 NW 28 46 15 25 1016.3 1014.5 0.6
25/10:30am 16.3 10.4 10.4 68 3.3 NNW 32 44 17 24 1015.9 1014.0 0.0
25/10:10am 17.1 10.4 10.9 67 3.5 NNW 37 56 20 30 1016.0 1014.2 0.0
25/10:00am 17.4 10.3 11.0 66 3.6 NNW 39 54 21 29 1016.1 1014.3 0.0
25/09:30am 17.5 10.8 10.9 65 3.7 NNW 37 59 20 32 1016.4 1014.6 0.0
25/09:25am 17.2 10.8 10.8 66 3.6 NNW 35 54 19 29 1016.3 1014.5 0.0
25/09:00am 16.6 10.3 10.9 69 3.2 NNW 35 46 19 25 1016.6 1014.8 0.2

Other Formats:

Comma delimited format used in spreadsheet applications
http://www.bom.gov.au/fwo/IDN60801/IDN60801.95726.axf

JavaScript Object Notation format (JSON) in row-major order
http://www.bom.gov.au/fwo/IDN60801/IDN60801.95726.json